Homeport Seattle

Current conditions, outlook, and status of Seattle.

 



Today is Sweetmorn, the 63rd day of Discord in the YOLD 3188

Content-type:text/html

national weather service

2022/05/16 20:53 KSEA 162053Z 23008G18KT 10SM FEW030 SCT060 BKN250 14/06 A3016 RMK AO2 SLP218 T01440061 51013
2022/05/16 20:53 KBFI 162053Z 20007KT 10SM FEW030 BKN080 14/07 A3015 RMK AO2 SLP210 T01440067 51012


  KSEA KBFI
  SeaTac Airport Boeing Field
day: 16 16
time: 2053 2053
type: Automated Automated
cond: Fair Fair
     
Winds    
     
mph: 9 8
mph gusting: 20 0
kts: 8 7
kts gusting: 18 0
direction: 230 200
direction: Southwest South
     
Temperature and Humidity    
     
temp F: 57 57
dew point F: 42 44
temp C: 14 14
dew point C: 06 07
rel. humidity: 58 62
     
windchill F: 54 55
windchill C: 12 12
heat index F: 86 85
heat index C: 30 29
     
Clouds and Visibility    
     
cloud cover: Mostly Cloudy Mostly Cloudy
visibility mi: 10 10
visibility km: 16 16
     
Air pressure    
     
in HG: 30.16 30.15
mm HG: 766 765
kg/cm: 1.041473056 1.04112774
psi: 14.81320464 14.8082931
millibar: 1021 1020
     
Experimental and Esoteric    
     
prec tmp: T01440061 T01440067
storm:
sea inHG: 30.17 30.15
sea mmHG: 766 765
sea kgcm: 1.041949896 1.04113412
sea psi: 14.81998284 14.8083798
sea mbar: 1021 1021
     



NOAA Weather Radio Seattle -- KHB60
[ continuous ]

KHB60 coverage map

[ view larger map ]

 


2022.05.16

21 : 30 UTC


Local Metric Time

8.96


Unix epoch

1652736639

stardate

 

External Links

weather

[ NOAA weather radio ]

Fire Department 911 Incidents

another date (mm/dd/yyyy)

Puget Sound Waters

salish sea hydrophone network

[ Home || seattle aquarium | pt. townsend | san juan isl | lime kiln s.p ]

Traffic

KC DOT Cameras

 


- * - poop - * -